Home   Weather   France   Biarritz   Past weeks
Flag for France

Past Weather in Biarritz, Pyrénées-Atlantiques, France — Yesterday and Last 2 Weeks

Currently: 30 °F. Clear. (Weather station: Biarritz Airport, France). See more current weather

Past Weather in Biarritz — Graph

°F

Biarritz Temperature Yesterday

Maximum temperature yesterday: 52 °F (at 2:00 pm)
Minimum temperature yesterday: 34 °F (at 8:00 am)
Average temperature yesterday: 43 °F

High & Low Weather Summary for the Past Weeks

 TemperatureHumidityPressure
High55 °F (Jan 19, 8:30 pm)100% (Jan 19, 9:30 am)30.57 "Hg (Jan 19, 9:30 am)
Low28 °F (Jan 21, 5:30 am)46% (Jan 20, 3:00 pm)29.65 "Hg (Jan 19, 5:00 pm)
Average40 °F82%30.36 "Hg
* Reported Jan 19 8:00 am — Feb 3 8:00 am, Biarritz. Weather by CustomWeather, © 2023

Note: Actual official high and low records may vary slightly from our data, if they occured in-between our weather recording intervals... More about our weather records

Biarritz Weather History for the Previous 24 Hours

Scroll right to see more
 ConditionsComfort  
Time TempWeatherWind HumidityBarometerVisibility
8:00 am
Fri, Feb 3
30 °FClear.6 mph100%30.57 "Hg10 mi
7:00 am32 °FClear.5 mph93%30.57 "Hg10 mi
6:30 am32 °FClear.5 mph93%30.57 "Hg6 mi
6:00 am32 °FClear.5 mph93%30.57 "Hg10 mi
5:30 am34 °FClear.5 mph93%30.57 "Hg10 mi
5:00 am34 °FClear.6 mph93%30.57 "Hg10 mi
4:30 am34 °FClear.6 mph93%30.57 "Hg10 mi
4:00 am34 °FClear.6 mph93%30.57 "Hg10 mi
3:30 am36 °FClear.5 mph93%30.57 "Hg10 mi
2:30 am37 °FClear.6 mph93%30.57 "Hg10 mi
2:00 am37 °FClear.5 mph87%30.57 "Hg10 mi
12:30 am39 °FClear.5 mph81%30.57 "Hg10 mi
12:00 am39 °FClear.6 mph87%30.57 "Hg10 mi
11:00 pm
Thu, Feb 2
43 °FClear.3 mph76%30.57 "Hg10 mi
10:30 pm43 °FClear.5 mph76%30.57 "Hg10 mi
10:00 pm43 °FClear.3 mph76%30.57 "Hg10 mi
9:00 pm43 °FClear.3 mph76%30.57 "Hg10 mi
8:30 pm45 °FClear.5 mph71%30.57 "Hg10 mi
8:00 pm46 °FClear.3 mph66%30.57 "Hg10 mi
7:00 pm48 °FClear.7 mph62%30.54 "Hg10 mi
6:30 pm48 °FClear.6 mph62%30.54 "Hg10 mi
6:00 pm50 °FSunny.9 mph62%30.54 "Hg10 mi
5:00 pm52 °FPassing clouds.9 mph58%30.51 "HgN/A
4:30 pm52 °FPassing clouds.10 mph58%30.51 "HgN/A
4:00 pm52 °FPassing clouds.10 mph58%30.51 "HgN/A
3:00 pm52 °FPassing clouds.9 mph58%30.51 "HgN/A
2:30 pm52 °FPassing clouds.12 mph58%30.51 "HgN/A
2:00 pm52 °FPassing clouds.12 mph58%30.51 "HgN/A
1:00 pm50 °FPassing clouds.12 mph62%30.54 "HgN/A
12:30 pm48 °FPassing clouds.8 mph66%30.57 "HgN/A
12:00 pm46 °FSunny.8 mph71%30.57 "Hg10 mi
11:00 am45 °FSunny.8 mph76%30.57 "Hg10 mi
10:30 am43 °FSunny.6 mph81%30.54 "Hg10 mi
10:00 am39 °FSunny.3 mph93%30.54 "Hg10 mi
9:30 am37 °FPartly sunny.2 mph93%30.54 "HgN/A
9:00 am36 °FPartly sunny.2 mph93%30.54 "HgN/A
Weather by CustomWeather, © 2023

See weather overview